createdAt,value
2023-10-28T00:02:18.066Z,83.77
2023-10-28T00:04:45.697Z,83.98
2023-10-28T00:07:14.746Z,84.37
2023-10-28T00:09:42.483Z,84.64
2023-10-28T00:12:10.451Z,84.45
2023-10-28T00:14:38.370Z,84.71
2023-10-28T00:17:06.023Z,84.75
2023-10-28T00:19:33.808Z,84.80
2023-10-28T00:22:01.452Z,84.96
2023-10-28T00:24:30.592Z,85.20
2023-10-28T00:26:58.311Z,85.01
2023-10-28T00:29:26.053Z,84.91
2023-10-28T00:31:54.497Z,84.78
2023-10-28T00:34:22.161Z,85.06
2023-10-28T00:36:49.977Z,85.37
2023-10-28T00:39:17.739Z,85.16
2023-10-28T00:41:49.035Z,85.38
2023-10-28T00:44:16.998Z,85.21
2023-10-28T00:46:45.016Z,85.42
2023-10-28T00:49:13.715Z,85.37
2023-10-28T00:51:42.348Z,85.17
2023-10-28T00:54:11.087Z,85.34
2023-10-28T00:56:38.783Z,85.51
2023-10-28T00:59:07.873Z,85.33
2023-10-28T01:01:36.059Z,85.01
2023-10-28T01:04:05.395Z,85.10
2023-10-28T01:06:33.107Z,85.33
2023-10-28T01:09:00.823Z,85.58
2023-10-28T01:11:28.720Z,85.47
2023-10-28T01:13:56.899Z,85.52
2023-10-28T01:16:27.175Z,85.78
2023-10-28T01:18:56.317Z,85.85
2023-10-28T01:21:25.349Z,85.42
2023-10-28T01:23:53.907Z,85.30
2023-10-28T01:26:21.579Z,85.43
2023-10-28T01:28:52.356Z,85.50
2023-10-28T01:31:20.187Z,85.64
2023-10-28T01:33:47.837Z,85.48
2023-10-28T01:36:16.721Z,85.74
2023-10-28T01:38:45.775Z,85.97
2023-10-28T01:41:14.401Z,85.96
2023-10-28T01:43:45.760Z,86.66
2023-10-28T01:46:13.455Z,86.81
2023-10-28T01:48:42.574Z,86.81
2023-10-28T01:51:11.856Z,86.73
2023-10-28T01:53:39.489Z,87.29
2023-10-28T01:56:08.793Z,87.17
2023-10-28T01:58:36.832Z,87.10
2023-10-28T02:01:04.767Z,87.43
2023-10-28T02:03:33.436Z,87.80
2023-10-28T02:06:01.391Z,87.89
2023-10-28T02:08:29.138Z,88.58
2023-10-28T02:10:56.979Z,88.88
2023-10-28T02:13:26.105Z,89.51
2023-10-28T02:15:53.919Z,90.04
2023-10-28T02:18:23.905Z,90.41
2023-10-28T02:20:51.556Z,90.69
2023-10-28T02:23:19.222Z,90.81
2023-10-28T02:25:46.931Z,91.27
2023-10-28T02:28:15.357Z,91.14
2023-10-28T02:30:44.445Z,91.15
2023-10-28T02:33:12.171Z,90.54
2023-10-28T02:35:39.812Z,90.24
2023-10-28T02:38:07.545Z,90.04
2023-10-28T02:40:35.401Z,89.44
2023-10-28T02:43:03.065Z,89.65
2023-10-28T02:45:30.701Z,89.71
2023-10-28T02:47:59.678Z,89.30
2023-10-28T02:50:27.342Z,89.37
2023-10-28T02:52:54.960Z,89.28
2023-10-28T02:55:23.011Z,89.21
2023-10-28T02:57:50.650Z,89.53
2023-10-28T03:00:18.992Z,89.64
2023-10-28T03:02:46.694Z,89.70
2023-10-28T03:05:15.727Z,89.74
2023-10-28T03:07:43.396Z,89.83
2023-10-28T03:10:11.771Z,89.48
2023-10-28T03:12:39.789Z,89.24
2023-10-28T03:15:10.186Z,89.07
2023-10-28T03:17:37.933Z,89.15
2023-10-28T03:20:06.723Z,88.83
2023-10-28T03:22:35.717Z,87.91
2023-10-28T03:25:04.374Z,87.44
2023-10-28T03:27:32.856Z,87.54
2023-10-28T03:30:00.807Z,87.19
2023-10-28T03:32:28.477Z,87.33
2023-10-28T03:34:56.204Z,87.59
2023-10-28T03:37:24.506Z,87.77
2023-10-28T03:39:53.905Z,87.52
2023-10-28T03:42:21.560Z,87.18
2023-10-28T03:44:49.127Z,87.53
2023-10-28T03:47:16.798Z,87.41
2023-10-28T03:49:44.610Z,87.09
2023-10-28T03:52:12.945Z,87.71
2023-10-28T03:54:41.039Z,87.42
2023-10-28T03:57:10.202Z,87.56
2023-10-28T03:59:37.954Z,87.20
2023-10-28T04:02:05.914Z,87.52
2023-10-28T04:04:33.634Z,87.59
2023-10-28T04:07:01.380Z,87.68
2023-10-28T04:09:28.981Z,87.70
2023-10-28T04:11:56.605Z,87.34
2023-10-28T04:14:25.752Z,87.86
2023-10-28T04:16:53.521Z,88.22
2023-10-28T04:19:21.140Z,88.27
2023-10-28T04:21:48.728Z,88.75
2023-10-28T04:24:16.350Z,88.72
2023-10-28T04:26:43.980Z,89.10
2023-10-28T04:29:11.680Z,88.72
2023-10-28T04:31:41.882Z,88.92
2023-10-28T04:34:11.583Z,89.22
2023-10-28T04:36:39.224Z,89.39
2023-10-28T04:39:06.924Z,89.33
2023-10-28T04:41:34.808Z,89.55
2023-10-28T04:44:02.965Z,90.03
2023-10-28T04:46:31.278Z,90.42
2023-10-28T04:49:01.525Z,90.68
2023-10-28T04:51:29.215Z,90.87
2023-10-28T04:53:57.203Z,90.95
2023-10-28T04:56:24.849Z,91.33
2023-10-28T04:58:52.508Z,91.09
2023-10-28T05:01:21.046Z,91.20
2023-10-28T05:03:50.994Z,91.23
2023-10-28T05:06:21.222Z,91.37
2023-10-28T05:08:49.696Z,91.47
2023-10-28T05:11:17.567Z,91.58
2023-10-28T05:13:45.329Z,91.38
2023-10-28T05:16:13.055Z,91.31
2023-10-28T05:18:40.964Z,91.45
2023-10-28T05:21:09.713Z,91.51
2023-10-28T05:23:38.898Z,91.07
2023-10-28T05:26:08.206Z,91.12
2023-10-28T05:28:35.884Z,91.34
2023-10-28T05:31:04.442Z,91.53
2023-10-28T05:33:32.067Z,91.24
2023-10-28T05:35:59.688Z,91.27
2023-10-28T05:38:27.349Z,90.96
2023-10-28T05:40:57.137Z,90.34
2023-10-28T05:43:24.792Z,90.42
2023-10-28T05:45:52.679Z,90.28
2023-10-28T05:48:20.315Z,89.87
2023-10-28T05:50:48.916Z,89.78
2023-10-28T05:53:16.548Z,89.89
2023-10-28T05:55:44.273Z,89.76
2023-10-28T05:58:13.277Z,89.43
2023-10-28T06:00:42.755Z,89.47
2023-10-28T06:03:10.556Z,89.56
2023-10-28T06:05:39.168Z,89.35
2023-10-28T06:08:09.376Z,89.31
2023-10-28T06:10:37.376Z,89.34
2023-10-28T06:13:05.078Z,89.64
2023-10-28T06:15:34.067Z,89.33
2023-10-28T06:18:02.389Z,89.29
2023-10-28T06:20:31.578Z,89.03
2023-10-28T06:22:59.284Z,88.74
2023-10-28T06:25:27.235Z,88.53
2023-10-28T06:27:54.860Z,87.89
2023-10-28T06:30:23.577Z,87.96
2023-10-28T06:32:52.584Z,87.47
2023-10-28T06:35:20.314Z,86.94
2023-10-28T06:37:48.169Z,86.54
2023-10-28T06:40:15.820Z,86.59
2023-10-28T06:42:43.649Z,86.39
2023-10-28T06:45:11.936Z,85.96
2023-10-28T06:47:39.708Z,85.99
2023-10-28T06:50:09.920Z,86.05
2023-10-28T06:52:38.451Z,86.26
2023-10-28T06:55:06.651Z,85.42
2023-10-28T06:57:34.285Z,85.90
2023-10-28T07:00:01.951Z,85.79
2023-10-28T07:02:29.761Z,85.52
2023-10-28T07:04:57.517Z,85.90
2023-10-28T07:07:26.731Z,85.73
2023-10-28T07:09:54.414Z,85.70
2023-10-28T07:12:22.068Z,85.47
2023-10-28T07:14:49.672Z,85.75
2023-10-28T07:17:17.388Z,85.51
2023-10-28T07:19:45.321Z,85.39
2023-10-28T07:22:13.195Z,84.29
2023-10-28T07:24:42.188Z,83.61
2023-10-28T07:27:09.796Z,82.80
2023-10-28T07:29:37.416Z,82.83
2023-10-28T07:32:05.548Z,83.14
2023-10-28T07:34:33.303Z,83.21
2023-10-28T07:37:01.450Z,82.45
2023-10-28T07:39:29.306Z,82.04
2023-10-28T07:41:58.299Z,81.89
2023-10-28T07:44:25.991Z,82.19
2023-10-28T07:46:53.664Z,81.74
2023-10-28T07:49:21.535Z,81.61
2023-10-28T07:51:49.241Z,82.00
2023-10-28T07:54:16.882Z,81.96
2023-10-28T07:56:44.544Z,81.82
2023-10-28T07:59:13.532Z,81.75
2023-10-28T08:01:42.388Z,81.21
2023-10-28T08:04:10.104Z,81.18
2023-10-28T08:06:37.773Z,81.18
2023-10-28T08:09:07.568Z,80.90
2023-10-28T08:11:36.114Z,80.03
2023-10-28T08:14:04.780Z,80.39
2023-10-28T08:16:36.184Z,79.93
2023-10-28T08:19:04.976Z,80.50
2023-10-28T08:21:32.859Z,80.95
2023-10-28T08:24:01.506Z,80.55
2023-10-28T08:26:29.148Z,81.07
2023-10-28T08:28:56.834Z,80.83
2023-10-28T08:31:24.546Z,81.56
2023-10-28T08:33:53.641Z,81.31
2023-10-28T08:36:21.324Z,80.81
2023-10-28T08:38:49.438Z,80.52
2023-10-28T08:41:23.616Z,81.04
2023-10-28T08:43:52.087Z,81.76
2023-10-28T08:46:19.937Z,82.24
2023-10-28T08:48:47.713Z,82.91
2023-10-28T08:51:17.733Z,83.63
2023-10-28T08:53:47.536Z,83.75
2023-10-28T08:56:19.063Z,84.33
2023-10-28T08:58:50.335Z,84.54
2023-10-28T09:01:20.782Z,84.45
2023-10-28T09:03:49.865Z,84.16
2023-10-28T09:06:20.738Z,83.16
2023-10-28T09:08:49.906Z,83.34
2023-10-28T09:11:18.147Z,82.15
2023-10-28T09:13:46.932Z,82.88
2023-10-28T09:16:16.123Z,83.51
2023-10-28T09:18:44.915Z,83.07
2023-10-28T09:21:13.713Z,82.15
2023-10-28T09:23:43.951Z,81.59
2023-10-28T09:26:11.845Z,82.16
2023-10-28T09:28:45.334Z,80.36
2023-10-28T09:31:13.239Z,80.21
2023-10-28T09:33:41.695Z,80.36
2023-10-28T09:36:10.449Z,80.11
2023-10-28T09:38:38.448Z,79.29
2023-10-28T09:41:09.126Z,79.06
2023-10-28T09:43:38.875Z,79.24
2023-10-28T09:46:07.174Z,78.37
2023-10-28T09:48:39.972Z,77.94
2023-10-28T09:51:07.819Z,78.18
2023-10-28T09:53:37.284Z,78.13
2023-10-28T09:56:05.820Z,77.54
2023-10-28T09:58:39.823Z,77.72
2023-10-28T10:01:15.615Z,77.93
2023-10-28T10:03:51.858Z,78.15
2023-10-28T10:06:19.578Z,77.62
2023-10-28T10:08:51.397Z,77.17
2023-10-28T10:11:23.902Z,77.21
2023-10-28T10:13:53.835Z,76.43
2023-10-28T10:16:29.754Z,75.72
2023-10-28T10:18:59.654Z,75.71
2023-10-28T10:21:34.919Z,75.55
2023-10-28T10:24:05.529Z,75.54
2023-10-28T10:26:34.718Z,75.13
2023-10-28T10:29:05.498Z,75.20
2023-10-28T10:31:34.515Z,75.10
2023-10-28T10:34:04.991Z,75.46
2023-10-28T10:36:37.085Z,75.38
2023-10-28T10:39:14.059Z,76.00
2023-10-28T10:41:41.941Z,76.00
2023-10-28T10:44:28.119Z,76.04
2023-10-28T10:46:57.765Z,76.30
2023-10-28T10:49:25.662Z,76.99
2023-10-28T10:51:53.772Z,77.09
2023-10-28T10:54:21.845Z,78.84
2023-10-28T10:56:50.710Z,79.55
2023-10-28T10:59:18.362Z,79.29
2023-10-28T11:01:47.489Z,79.43
2023-10-28T11:04:15.487Z,79.14
2023-10-28T11:06:43.208Z,78.56
2023-10-28T11:09:10.879Z,78.30
2023-10-28T11:11:39.230Z,77.93
2023-10-28T11:14:07.407Z,78.04
2023-10-28T11:16:36.038Z,77.87
2023-10-28T11:19:06.178Z,78.04
2023-10-28T11:21:35.536Z,77.53
2023-10-28T11:24:04.567Z,77.49
2023-10-28T11:26:33.076Z,77.75
2023-10-28T11:29:01.504Z,77.08
2023-10-28T11:31:30.895Z,76.99
2023-10-28T11:33:59.384Z,77.09
2023-10-28T11:36:29.048Z,77.15
2023-10-28T11:38:57.208Z,77.58
2023-10-28T11:41:24.164Z,77.42
2023-10-28T11:43:52.491Z,77.21
2023-10-28T11:46:21.542Z,77.40
2023-10-28T11:48:49.316Z,77.23
2023-10-28T11:51:17.083Z,77.00
2023-10-28T11:53:48.438Z,76.92
2023-10-28T11:56:17.233Z,76.00
2023-10-28T11:58:45.509Z,75.86
2023-10-28T12:01:13.480Z,75.81
2023-10-28T12:03:41.178Z,75.80
2023-10-28T12:06:22.688Z,75.54
2023-10-28T12:08:59.144Z,75.33
2023-10-28T12:11:27.084Z,75.09
2023-10-28T12:13:55.560Z,74.79
2023-10-28T12:16:23.265Z,74.37
2023-10-28T12:18:51.746Z,74.27
2023-10-28T12:21:19.557Z,73.60
2023-10-28T12:23:47.324Z,73.72
2023-10-28T12:26:16.460Z,73.73
2023-10-28T12:28:44.074Z,73.15
2023-10-28T12:31:11.764Z,72.95
2023-10-28T12:33:39.482Z,73.55
2023-10-28T12:36:09.967Z,73.02
2023-10-28T12:38:38.058Z,73.09
2023-10-28T12:41:06.134Z,72.27
2023-10-28T12:43:35.183Z,72.80
2023-10-28T12:46:03.173Z,71.44
2023-10-28T12:48:31.185Z,71.92
2023-10-28T12:51:00.927Z,72.23
2023-10-28T12:53:30.312Z,72.61
2023-10-28T12:55:58.350Z,72.40
2023-10-28T12:58:26.544Z,72.68
2023-10-28T13:00:55.974Z,72.65
2023-10-28T13:03:23.678Z,72.74
2023-10-28T13:05:51.950Z,72.71
2023-10-28T13:08:19.734Z,72.84
2023-10-28T13:10:47.451Z,73.46
2023-10-28T13:13:15.774Z,73.40
2023-10-28T13:15:44.140Z,73.46
2023-10-28T13:18:13.224Z,73.59
2023-10-28T13:20:41.002Z,73.54
2023-10-28T13:23:09.185Z,73.20
2023-10-28T13:25:37.301Z,73.27
2023-10-28T13:28:05.128Z,73.42
2023-10-28T13:30:32.824Z,73.23
2023-10-28T13:33:00.799Z,72.77
2023-10-28T13:35:29.839Z,72.84
2023-10-28T13:37:58.128Z,73.12
2023-10-28T13:40:26.063Z,72.54
2023-10-28T13:42:53.722Z,72.85
2023-10-28T13:45:21.658Z,72.94
2023-10-28T13:47:51.645Z,72.83
2023-10-28T13:50:19.843Z,72.82
2023-10-28T13:52:50.363Z,72.81
2023-10-28T13:55:19.251Z,73.13
2023-10-28T13:57:47.748Z,72.79
2023-10-28T14:00:15.847Z,72.90
2023-10-28T14:02:43.659Z,72.59
2023-10-28T14:05:12.977Z,73.29
2023-10-28T14:07:40.998Z,74.65
2023-10-28T14:10:11.092Z,75.53
2023-10-28T14:12:41.752Z,77.11
2023-10-28T14:15:11.549Z,76.72
2023-10-28T14:17:39.373Z,77.30
2023-10-28T14:20:10.752Z,77.16
2023-10-28T14:22:38.861Z,77.90
2023-10-28T14:25:09.261Z,78.19
2023-10-28T14:27:38.370Z,78.39
2023-10-28T14:30:08.120Z,78.26
2023-10-28T14:32:37.070Z,79.18
2023-10-28T14:35:06.682Z,79.56
2023-10-28T14:37:34.469Z,79.82
2023-10-28T14:40:02.278Z,80.17
2023-10-28T14:42:29.909Z,80.43
2023-10-28T14:44:59.762Z,80.68
2023-10-28T14:47:27.688Z,80.81
2023-10-28T14:49:57.106Z,80.17
2023-10-28T14:52:25.688Z,80.94
2023-10-28T14:54:54.255Z,81.16
2023-10-28T14:57:21.903Z,81.37
2023-10-28T14:59:49.638Z,81.20
2023-10-28T15:02:19.017Z,81.12
2023-10-28T15:04:49.154Z,81.51
2023-10-28T15:07:17.811Z,80.29
2023-10-28T15:09:48.175Z,80.76
2023-10-28T15:12:16.967Z,81.60
2023-10-28T15:14:44.746Z,81.80
2023-10-28T15:17:13.255Z,81.30
2023-10-28T15:19:45.524Z,81.60
2023-10-28T15:22:13.143Z,82.08
2023-10-28T15:24:40.836Z,82.07
2023-10-28T15:27:09.632Z,81.58
2023-10-28T15:29:37.520Z,81.63
2023-10-28T15:32:05.531Z,81.80
2023-10-28T15:34:33.904Z,82.07
2023-10-28T15:37:03.016Z,82.30
2023-10-28T15:39:30.627Z,82.11
2023-10-28T15:41:58.542Z,82.13
2023-10-28T15:44:26.210Z,82.33
2023-10-28T15:46:54.806Z,82.46
2023-10-28T15:49:22.487Z,82.59
2023-10-28T15:51:50.485Z,82.84
2023-10-28T15:54:19.477Z,82.82
2023-10-28T15:56:47.495Z,82.71
2023-10-28T15:59:15.182Z,82.92
2023-10-28T16:01:42.926Z,82.97
2023-10-28T16:04:12.315Z,83.47
2023-10-28T16:06:44.636Z,83.23
2023-10-28T16:09:12.362Z,83.91
2023-10-28T16:11:41.428Z,83.65
2023-10-28T16:14:09.116Z,83.90
2023-10-28T16:16:36.949Z,83.83
2023-10-28T16:19:04.642Z,83.80
2023-10-28T16:21:32.444Z,83.53
2023-10-28T16:24:00.317Z,82.98
2023-10-28T16:26:28.177Z,82.90
2023-10-28T16:28:57.297Z,83.33
2023-10-28T16:31:25.064Z,83.23
2023-10-28T16:33:52.932Z,82.49
2023-10-28T16:36:21.046Z,81.84
2023-10-28T16:38:48.792Z,81.75
2023-10-28T16:41:17.077Z,82.44
2023-10-28T16:43:44.843Z,82.69
2023-10-28T16:46:15.816Z,82.79
2023-10-28T16:48:43.504Z,82.73
2023-10-28T16:51:17.876Z,83.37
2023-10-28T16:53:46.740Z,83.65
2023-10-28T16:56:16.721Z,83.69
2023-10-28T16:58:44.502Z,83.68
2023-10-28T17:01:12.399Z,84.55
2023-10-28T17:03:42.859Z,84.96
2023-10-28T17:06:10.818Z,85.14
2023-10-28T17:08:38.585Z,84.25
2023-10-28T17:11:07.955Z,84.11
2023-10-28T17:13:35.742Z,84.60
2023-10-28T17:16:04.896Z,84.42
2023-10-28T17:18:33.060Z,84.35
2023-10-28T17:21:06.848Z,84.90
2023-10-28T17:23:35.163Z,83.77
2023-10-28T17:26:04.341Z,82.77
2023-10-28T17:28:33.093Z,82.51
2023-10-28T17:31:01.115Z,82.51
2023-10-28T17:33:29.719Z,82.80
2023-10-28T17:35:57.927Z,82.61
2023-10-28T17:38:28.705Z,82.80
2023-10-28T17:40:56.621Z,82.83
2023-10-28T17:43:24.570Z,82.25
2023-10-28T17:45:52.242Z,82.48
2023-10-28T17:48:20.323Z,82.80
2023-10-28T17:50:48.192Z,82.47
2023-10-28T17:53:16.125Z,81.38
2023-10-28T17:55:45.548Z,81.95
2023-10-28T17:58:13.344Z,81.78
2023-10-28T18:00:41.996Z,81.75
2023-10-28T18:03:10.821Z,81.19
2023-10-28T18:05:38.824Z,81.06
2023-10-28T18:08:06.681Z,81.17
2023-10-28T18:10:36.301Z,81.63
2023-10-28T18:13:05.610Z,81.61
2023-10-28T18:15:33.760Z,81.59
2023-10-28T18:18:02.360Z,81.76
2023-10-28T18:20:30.170Z,81.85
2023-10-28T18:22:58.367Z,81.55
2023-10-28T18:25:26.291Z,81.31
2023-10-28T18:27:54.638Z,81.54
2023-10-28T18:30:24.137Z,81.68
2023-10-28T18:32:52.112Z,81.94
2023-10-28T18:35:20.053Z,81.89
2023-10-28T18:37:51.512Z,81.94
2023-10-28T18:40:20.639Z,81.59
2023-10-28T18:42:48.462Z,81.52
2023-10-28T18:45:16.442Z,82.00
2023-10-28T18:47:46.266Z,82.15
2023-10-28T18:50:18.143Z,82.20
2023-10-28T18:52:46.097Z,82.55
2023-10-28T18:55:14.053Z,82.38
2023-10-28T18:57:43.075Z,82.46
2023-10-28T19:00:12.012Z,82.71
2023-10-28T19:02:39.995Z,82.56
2023-10-28T19:05:10.229Z,82.51
2023-10-28T19:07:38.034Z,82.81
2023-10-28T19:10:08.197Z,82.98
2023-10-28T19:12:36.289Z,83.15
2023-10-28T19:15:04.190Z,83.05
2023-10-28T19:17:32.196Z,83.21
2023-10-28T19:20:00.154Z,82.46
2023-10-28T19:22:30.119Z,82.52
2023-10-28T19:24:58.074Z,82.50
2023-10-28T19:27:25.933Z,82.55
2023-10-28T19:29:56.255Z,82.28
2023-10-28T19:32:24.270Z,82.71
2023-10-28T19:34:53.816Z,82.24
2023-10-28T19:37:21.717Z,82.70
2023-10-28T19:39:50.928Z,82.63
2023-10-28T19:42:18.608Z,82.80
2023-10-28T19:44:46.853Z,82.92
2023-10-28T19:47:15.074Z,82.46
2023-10-28T19:49:42.922Z,82.78
2023-10-28T19:52:10.577Z,83.04
2023-10-28T19:54:38.335Z,83.15
2023-10-28T19:57:07.496Z,83.24
2023-10-28T19:59:35.394Z,83.49
2023-10-28T20:02:03.487Z,83.63
2023-10-28T20:04:32.237Z,83.60
2023-10-28T20:06:59.967Z,83.69
2023-10-28T20:09:27.741Z,83.53
2023-10-28T20:11:56.812Z,83.71
2023-10-28T20:14:25.903Z,83.51
2023-10-28T20:16:54.300Z,83.61
2023-10-28T20:19:22.599Z,83.75
2023-10-28T20:21:50.436Z,83.88
2023-10-28T20:24:18.637Z,83.67
2023-10-28T20:26:46.512Z,83.89
2023-10-28T20:29:15.283Z,83.99
2023-10-28T20:31:44.449Z,83.87
2023-10-28T20:34:13.195Z,83.79
2023-10-28T20:36:40.827Z,84.00
2023-10-28T20:39:09.619Z,83.95
2023-10-28T20:41:37.409Z,84.00
2023-10-28T20:44:05.616Z,84.25
2023-10-28T20:46:33.401Z,84.07
2023-10-28T20:49:02.808Z,84.09
2023-10-28T20:51:30.546Z,84.12
2023-10-28T20:53:58.403Z,83.88
2023-10-28T20:56:26.887Z,84.01
2023-10-28T20:58:54.515Z,84.35
2023-10-28T21:01:22.275Z,83.90
2023-10-28T21:03:50.068Z,84.06
2023-10-28T21:06:19.309Z,83.97
2023-10-28T21:08:47.099Z,84.28
2023-10-28T21:11:15.142Z,84.14
2023-10-28T21:13:42.964Z,84.02
2023-10-28T21:16:10.907Z,84.21
2023-10-28T21:18:38.976Z,84.07
2023-10-28T21:21:07.360Z,84.22
2023-10-28T21:23:36.502Z,84.11
2023-10-28T21:26:04.940Z,84.13
2023-10-28T21:28:32.975Z,84.10
2023-10-28T21:31:03.650Z,84.15
2023-10-28T21:33:31.604Z,84.17
2023-10-28T21:36:00.744Z,84.45
2023-10-28T21:38:28.678Z,84.12
2023-10-28T21:41:00.265Z,84.07
2023-10-28T21:43:28.587Z,84.18
2023-10-28T21:46:00.528Z,84.11
2023-10-28T21:48:28.729Z,84.18
2023-10-28T21:50:56.913Z,84.22
2023-10-28T21:53:24.725Z,84.31
2023-10-28T21:55:52.407Z,84.27
2023-10-28T21:58:21.374Z,84.15
2023-10-28T22:00:51.791Z,84.10
2023-10-28T22:03:19.656Z,84.55
2023-10-28T22:05:47.655Z,83.94
2023-10-28T22:08:15.933Z,83.81
2023-10-28T22:10:44.008Z,83.46
2023-10-28T22:13:14.621Z,83.58
2023-10-28T22:15:44.135Z,83.06
2023-10-28T22:18:14.583Z,83.11
2023-10-28T22:20:43.673Z,83.14
2023-10-28T22:23:12.012Z,82.99
2023-10-28T22:25:40.733Z,82.63
2023-10-28T22:28:15.360Z,82.77
2023-10-28T22:30:45.003Z,82.84
2023-10-28T22:33:12.821Z,82.89
2023-10-28T22:35:40.584Z,82.89
2023-10-28T22:38:08.364Z,82.81
2023-10-28T22:40:36.142Z,82.71
2023-10-28T22:43:03.952Z,82.55
2023-10-28T22:45:31.583Z,82.46
2023-10-28T22:48:00.799Z,82.69
2023-10-28T22:50:29.494Z,82.37
2023-10-28T22:52:57.223Z,82.17
2023-10-28T22:55:25.365Z,82.23
2023-10-28T22:57:53.061Z,82.16
2023-10-28T23:00:20.781Z,82.10
2023-10-28T23:02:48.574Z,81.94
2023-10-28T23:05:17.910Z,82.01
2023-10-28T23:07:45.724Z,81.97
2023-10-28T23:10:13.406Z,82.06
2023-10-28T23:12:41.116Z,82.09
2023-10-28T23:15:09.892Z,82.36
2023-10-28T23:17:37.627Z,82.27
2023-10-28T23:20:06.307Z,82.20
2023-10-28T23:22:35.259Z,82.26
2023-10-28T23:25:05.245Z,82.08
2023-10-28T23:27:32.997Z,82.03
2023-10-28T23:30:01.079Z,82.08
2023-10-28T23:32:28.887Z,82.17
2023-10-28T23:34:56.610Z,82.12
2023-10-28T23:37:24.466Z,82.22
2023-10-28T23:39:53.432Z,82.35
2023-10-28T23:42:21.214Z,82.35
2023-10-28T23:44:49.116Z,82.51
2023-10-28T23:47:17.001Z,82.59
2023-10-28T23:49:44.842Z,82.76
2023-10-28T23:52:12.534Z,82.72
2023-10-28T23:54:40.163Z,82.94
2023-10-28T23:57:10.412Z,82.84
2023-10-28T23:59:38.939Z,82.89
